Time;durP1;ratioP1;P1;durP2;ratioP2;P2;SDS_P1;SDS_P2;PMS_P1;PMS_P2;Temp;Humidity;BMP_temperature;BMP_pressure;BME280_temperature;BME280_humidity;BME280_pressure;Samples;Min_cycle;Max_cycle;Signal;HPM_P1;HPM_P2
2022/06/11 04:02:16;;;;;;;4.40;4.20;;;19.00;99.90;;;;;;5110358;23;21100;-69
2022/06/11 04:04:43;;;;;;;4.83;4.53;;;19.00;99.90;;;;;;4952760;28;20688;-69
2022/06/11 04:07:12;;;;;;;4.70;4.40;;;19.00;99.90;;;;;;4959618;28;21181;-68
2022/06/11 04:09:43;;;;;;;5.27;4.87;;;19.00;99.90;;;;;;4956130;28;20618;-69
2022/06/11 04:12:15;;;;;;;4.87;4.43;;;19.00;99.90;;;;;;4951321;28;21018;-70
2022/06/11 04:14:43;;;;;;;4.23;4.03;;;19.00;99.90;;;;;;4965075;28;20822;-69
2022/06/11 04:17:14;;;;;;;4.97;4.77;;;19.00;99.90;;;;;;4959451;28;20830;-69
2022/06/11 04:19:45;;;;;;;4.90;4.60;;;19.00;99.90;;;;;;4961368;28;20456;-69
2022/06/11 04:22:12;;;;;;;4.60;4.40;;;19.00;99.90;;;;;;4960870;28;20547;-67
2022/06/11 04:24:39;;;;;;;4.93;4.67;;;19.00;99.90;;;;;;4957656;28;20491;-67
2022/06/11 04:27:09;;;;;;;4.50;4.40;;;19.00;99.90;;;;;;4957243;28;20578;-70
2022/06/11 04:29:43;;;;;;;5.00;4.80;;;19.00;99.90;;;;;;4941410;28;20877;-69
2022/06/11 04:32:15;;;;;;;4.50;4.20;;;19.10;99.90;;;;;;4955105;28;21019;-68
2022/06/11 04:34:44;;;;;;;4.43;4.20;;;19.10;99.90;;;;;;4971769;28;20475;-67
2022/06/11 04:37:13;;;;;;;4.50;4.30;;;19.20;99.90;;;;;;4955364;28;20536;-69
2022/06/11 04:39:41;;;;;;;4.07;3.90;;;19.20;99.90;;;;;;4971013;28;20467;-68
2022/06/11 04:42:11;;;;;;;5.40;5.00;;;19.20;99.90;;;;;;4955822;28;20901;-70
2022/06/11 04:44:38;;;;;;;4.70;4.60;;;19.20;99.90;;;;;;4960495;28;20461;-69
2022/06/11 04:47:05;;;;;;;4.50;4.37;;;19.20;99.90;;;;;;4949803;28;20509;-69
2022/06/11 04:49:32;;;;;;;4.60;4.40;;;19.20;99.90;;;;;;4960304;28;20496;-69
2022/06/11 04:52:00;;;;;;;5.47;5.07;;;19.20;99.90;;;;;;4951301;28;20845;-69
2022/06/11 04:54:27;;;;;;;4.47;4.27;;;19.30;99.90;;;;;;4960232;28;20461;-70
2022/06/11 04:56:54;;;;;;;4.87;4.47;;;19.40;99.90;;;;;;4949145;28;20475;-69
2022/06/11 04:59:21;;;;;;;4.43;4.03;;;19.40;99.90;;;;;;4941729;28;20474;-70
2022/06/11 05:01:47;;;;;;;4.33;4.23;;;19.40;99.90;;;;;;4948122;28;21013;-68
2022/06/11 05:04:15;;;;;;;4.70;4.60;;;19.50;99.90;;;;;;4952037;28;20555;-69
2022/06/11 05:06:44;;;;;;;4.27;4.10;;;19.80;99.90;;;;;;4944791;28;20469;-68
2022/06/11 05:09:16;;;;;;;4.47;4.13;;;20.10;99.90;;;;;;4951634;28;20491;-70
2022/06/11 05:11:43;;;;;;;3.80;3.70;;;20.60;99.90;;;;;;4949735;28;20492;-68
2022/06/11 05:14:10;;;;;;;3.43;3.23;;;21.00;99.90;;;;;;4952184;28;20473;-69
2022/06/11 05:16:41;;;;;;;4.23;3.87;;;21.90;99.90;;;;;;4962283;28;20473;-69
2022/06/11 05:19:08;;;;;;;5.13;3.10;;;22.40;99.90;;;;;;4959798;28;20465;-67
2022/06/11 05:21:35;;;;;;;3.27;3.17;;;23.00;99.90;;;;;;4950748;28;20493;-72
2022/06/11 05:24:02;;;;;;;3.73;3.40;;;23.60;99.90;;;;;;4954686;28;21004;-69
2022/06/11 05:26:34;;;;;;;3.30;3.00;;;24.30;99.90;;;;;;4955217;28;20812;-67
2022/06/11 05:29:00;;;;;;;3.83;3.60;;;24.70;99.90;;;;;;4945307;28;20477;-67
2022/06/11 05:31:27;;;;;;;2.63;2.57;;;25.20;99.90;;;;;;4964101;28;20500;-69
2022/06/11 05:33:54;;;;;;;2.70;2.70;;;25.70;99.90;;;;;;4963316;28;20461;-70
2022/06/11 05:36:21;;;;;;;3.13;3.03;;;25.70;99.90;;;;;;4951230;28;20478;-67
2022/06/11 05:38:48;;;;;;;3.23;2.93;;;25.80;99.90;;;;;;4962922;28;20517;-69
2022/06/11 05:41:15;;;;;;;3.40;3.20;;;26.00;99.90;;;;;;4971444;28;20487;-69
2022/06/11 05:43:45;;;;;;;3.17;3.03;;;25.80;99.90;;;;;;4950368;28;20902;-69
2022/06/11 05:46:17;;;;;;;3.40;3.00;;;25.90;99.90;;;;;;4952219;28;20965;-68
2022/06/11 05:48:47;;;;;;;2.80;2.60;;;25.70;99.90;;;;;;4953538;28;20469;-68
2022/06/11 05:51:17;;;;;;;3.40;3.27;;;25.70;99.90;;;;;;4953911;28;20498;-68
2022/06/11 05:53:44;;;;;;;2.87;2.67;;;25.80;99.90;;;;;;4936455;28;20464;-67
2022/06/11 05:56:11;;;;;;;3.37;3.17;;;26.20;99.90;;;;;;4953458;28;20821;-69
2022/06/11 05:58:40;;;;;;;3.37;3.17;;;26.60;99.90;;;;;;4965668;28;20466;-71
2022/06/11 06:01:10;;;;;;;2.73;2.63;;;26.80;99.90;;;;;;4955804;28;20502;-68
2022/06/11 06:03:37;;;;;;;2.97;2.87;;;27.00;99.90;;;;;;4955966;28;20495;-68
2022/06/11 06:06:04;;;;;;;2.80;2.70;;;27.50;99.90;;;;;;4963283;28;20479;-68
2022/06/11 06:08:31;;;;;;;3.50;3.20;;;27.80;99.90;;;;;;4974804;28;20531;-67
2022/06/11 06:10:58;;;;;;;4.50;4.30;;;28.20;99.90;;;;;;4966833;28;20495;-66
2022/06/11 06:16:10;;;;;;;3.97;3.70;;;28.50;99.90;;;;;;4959499;28;20514;-68
2022/06/11 06:18:37;;;;;;;3.03;3.03;;;28.90;99.90;;;;;;4956539;28;20512;-67
2022/06/11 06:21:04;;;;;;;4.17;3.77;;;29.00;99.90;;;;;;4957809;28;20519;-67
2022/06/11 06:23:32;;;;;;;3.77;3.27;;;29.10;99.90;;;;;;4952368;29;20842;-69
2022/06/11 06:25:58;;;;;;;4.00;3.90;;;29.40;99.90;;;;;;4937210;29;20903;-69
2022/06/11 06:28:25;;;;;;;3.53;3.30;;;29.50;99.90;;;;;;4945785;28;20481;-68
2022/06/11 06:30:52;;;;;;;4.73;4.33;;;29.00;99.90;;;;;;4961258;28;20487;-68
2022/06/11 06:33:20;;;;;;;3.77;3.67;;;28.50;99.90;;;;;;4955491;28;20571;-68
2022/06/11 06:35:47;;;;;;;4.13;3.90;;;27.90;99.90;;;;;;4963308;28;20585;-69
2022/06/11 06:38:16;;;;;;;4.67;4.23;;;27.80;99.90;;;;;;4970226;28;20528;-68
2022/06/11 06:40:43;;;;;;;4.57;4.13;;;27.50;99.90;;;;;;4962091;28;20710;-67
2022/06/11 06:43:10;;;;;;;3.97;3.87;;;27.10;99.90;;;;;;4953195;28;20994;-68
2022/06/11 06:45:36;;;;;;;4.60;4.30;;;27.20;99.90;;;;;;4948826;28;20473;-67
2022/06/11 06:48:03;;;;;;;4.50;4.20;;;27.50;99.90;;;;;;4948022;28;20892;-69
2022/06/11 06:50:31;;;;;;;4.40;4.10;;;27.40;99.90;;;;;;4949709;28;20475;-67
2022/06/11 06:52:58;;;;;;;4.90;4.70;;;26.90;99.90;;;;;;4956640;28;20802;-67
2022/06/11 06:55:25;;;;;;;4.90;4.70;;;26.40;99.90;;;;;;4969435;28;20541;-67
2022/06/11 06:57:52;;;;;;;4.70;4.50;;;26.00;99.90;;;;;;4958846;28;20561;-68
2022/06/11 07:00:19;;;;;;;5.10;4.70;;;25.70;99.90;;;;;;4956085;28;20468;-67
2022/06/11 07:02:47;;;;;;;4.17;3.83;;;25.90;99.90;;;;;;4952246;28;20220;-67
2022/06/11 07:05:15;;;;;;;3.97;3.77;;;26.40;99.90;;;;;;4951297;28;21109;-68
2022/06/11 07:07:47;;;;;;;4.40;2.90;;;26.50;99.90;;;;;;4939083;29;20499;-67
2022/06/11 07:10:15;;;;;;;3.20;3.10;;;26.40;99.90;;;;;;4949186;28;20467;-69
2022/06/11 07:12:42;;;;;;;3.30;3.10;;;26.50;99.90;;;;;;4952397;28;20508;-69
2022/06/11 07:15:09;;;;;;;3.00;2.80;;;26.80;99.90;;;;;;4956655;28;20514;-68
2022/06/11 07:17:40;;;;;;;3.00;2.80;;;27.20;99.90;;;;;;4955311;28;20467;-69
2022/06/11 07:20:12;;;;;;;2.77;2.67;;;27.60;99.90;;;;;;4952434;28;20521;-69
2022/06/11 07:22:42;;;;;;;3.13;2.90;;;28.00;99.90;;;;;;4965338;28;20458;-68
2022/06/11 07:25:12;;;;;;;3.90;3.60;;;28.30;99.90;;;;;;4972776;28;20510;-68
2022/06/11 07:27:42;;;;;;;3.47;3.27;;;28.00;99.90;;;;;;4972966;28;20465;-68
2022/06/11 07:30:13;;;;;;;3.00;2.90;;;27.10;99.90;;;;;;4972973;28;20454;-70
2022/06/11 07:32:42;;;;;;;3.30;3.10;;;26.50;99.90;;;;;;4954388;28;20996;-68
2022/06/11 07:35:12;;;;;;;3.70;3.50;;;26.20;99.90;;;;;;4944995;28;20471;-68
2022/06/11 07:37:40;;;;;;;3.20;3.10;;;25.90;99.90;;;;;;4967083;28;20482;-69
2022/06/11 07:40:11;;;;;;;2.70;2.60;;;25.60;99.90;;;;;;4953562;28;20468;-68
2022/06/11 07:42:38;;;;;;;3.23;3.10;;;25.40;99.90;;;;;;4944668;28;20531;-68
2022/06/11 07:45:06;;;;;;;3.83;3.63;;;25.30;99.90;;;;;;4939490;28;20491;-69
2022/06/11 07:50:17;;;;;;;4.47;4.27;;;25.00;99.90;;;;;;4972305;28;20502;-68
2022/06/11 07:52:44;;;;;;;4.57;4.43;;;24.60;99.90;;;;;;4942180;28;20477;-68
2022/06/11 07:55:12;;;;;;;5.77;5.27;;;24.20;99.90;;;;;;4945097;28;20517;-69
2022/06/11 07:57:39;;;;;;;4.83;4.47;;;23.90;99.90;;;;;;4958386;28;20475;-68
2022/06/11 08:00:09;;;;;;;5.60;5.20;;;23.70;99.90;;;;;;4952567;28;20493;-68
2022/06/11 08:02:36;;;;;;;5.60;5.40;;;23.50;99.90;;;;;;4960391;28;20562;-68
2022/06/11 08:05:03;;;;;;;5.17;4.87;;;23.40;99.90;;;;;;4959709;28;20493;-68
2022/06/11 08:07:29;;;;;;;5.53;5.33;;;23.20;99.90;;;;;;4947050;28;20481;-69
2022/06/11 08:09:57;;;;;;;5.47;5.07;;;23.10;99.90;;;;;;4947169;28;20472;-68
2022/06/11 08:12:26;;;;;;;4.30;4.00;;;23.70;99.90;;;;;;4965848;28;20484;-68
2022/06/11 08:14:56;;;;;;;5.27;4.83;;;24.70;99.90;;;;;;4945965;28;20465;-69
2022/06/11 08:17:23;;;;;;;4.93;4.53;;;25.60;99.90;;;;;;4951659;28;20460;-68
2022/06/11 08:19:50;;;;;;;5.77;5.13;;;26.40;99.90;;;;;;4951138;28;20459;-66
2022/06/11 08:22:17;;;;;;;5.07;4.77;;;26.70;99.90;;;;;;4952369;28;20771;-67
2022/06/11 08:24:44;;;;;;;5.70;5.40;;;27.00;99.90;;;;;;4958994;28;20549;-67
2022/06/11 08:27:10;;;;;;;4.37;4.17;;;27.40;99.90;;;;;;4956586;28;20543;-66
2022/06/11 08:29:38;;;;;;;4.23;4.03;;;27.60;99.90;;;;;;4946733;28;21179;-67
2022/06/11 08:32:06;;;;;;;4.30;3.97;;;27.50;99.90;;;;;;4964876;28;20590;-67
2022/06/11 08:34:36;;;;;;;4.30;4.20;;;27.30;99.90;;;;;;4968153;28;20466;-67
2022/06/11 08:37:03;;;;;;;3.90;3.70;;;27.20;99.90;;;;;;4950271;28;21028;-68
2022/06/11 08:39:30;;;;;;;4.30;4.10;;;27.30;99.60;;;;;;4961810;28;20986;-70
2022/06/11 08:41:57;;;;;;;3.80;3.70;;;27.60;99.60;;;;;;4949587;28;20597;-68
2022/06/11 08:44:24;;;;;;;3.70;3.53;;;27.30;99.90;;;;;;4949301;28;20552;-67
2022/06/11 08:46:52;;;;;;;4.30;4.10;;;27.30;99.80;;;;;;4949772;28;20844;-68
2022/06/11 08:49:33;;;;;;;3.77;3.67;;;27.50;99.10;;;;;;4959276;28;20476;-67
2022/06/11 08:52:08;;;;;;;3.83;3.63;;;27.50;99.00;;;;;;4958017;28;20606;-67
2022/06/11 08:54:39;;;;;;;4.00;3.70;;;27.40;99.20;;;;;;4943997;28;20975;-68
2022/06/11 08:57:14;;;;;;;3.53;3.53;;;27.50;99.50;;;;;;4940207;28;20475;-68
2022/06/11 08:59:56;;;;;;;3.40;3.33;;;27.40;98.30;;;;;;4950724;28;20472;-68
2022/06/11 09:02:48;;;;;;;3.10;3.00;;;27.30;97.80;;;;;;4945600;28;20487;-70
2022/06/11 09:05:31;;;;;;;3.03;3.03;;;26.90;98.00;;;;;;4951735;28;20861;-70
2022/06/11 09:08:11;;;;;;;3.60;3.40;;;27.10;97.90;;;;;;4948294;28;20502;-67
2022/06/11 09:11:08;;;;;;;4.10;4.10;;;27.30;96.60;;;;;;4959929;28;20895;-68
2022/06/11 09:13:57;;;;;;;3.80;3.60;;;27.10;97.50;;;;;;4937341;28;20615;-68
2022/06/11 09:16:33;;;;;;;3.37;3.37;;;26.80;97.40;;;;;;4954293;28;20997;-68
2022/06/11 09:19:22;;;;;;;3.50;3.40;;;26.80;96.60;;;;;;4952131;28;20468;-68
2022/06/11 09:22:02;;;;;;;3.40;3.30;;;26.60;97.00;;;;;;4950695;28;20530;-68
2022/06/11 09:24:51;;;;;;;2.60;2.53;;;26.60;97.20;;;;;;4949413;29;20486;-68
2022/06/11 09:27:24;;;;;;;2.60;2.50;;;26.50;95.50;;;;;;4953689;28;20480;-69
2022/06/11 09:30:01;;;;;;;2.13;2.03;;;26.50;95.40;;;;;;4956097;28;20581;-67
2022/06/11 09:32:31;;;;;;;2.03;1.90;;;26.40;94.20;;;;;;4947225;29;20499;-67
2022/06/11 09:35:08;;;;;;;1.47;1.40;;;26.40;92.90;;;;;;4958718;28;20579;-67
2022/06/11 09:37:42;;;;;;;1.60;1.60;;;26.30;93.40;;;;;;4958653;28;20522;-67
2022/06/11 09:40:16;;;;;;;1.27;1.00;;;26.30;93.10;;;;;;4937134;29;21129;-67
2022/06/11 09:43:14;;;;;;;1.50;1.40;;;26.30;92.70;;;;;;4957735;28;20467;-68
2022/06/11 09:45:48;;;;;;;1.50;1.50;;;26.20;92.60;;;;;;4945024;28;20548;-68
2022/06/11 09:48:26;;;;;;;1.70;1.60;;;26.00;91.80;;;;;;4953129;28;20475;-69
2022/06/11 09:50:58;;;;;;;1.40;1.40;;;25.90;92.00;;;;;;4935964;29;20492;-69
2022/06/11 09:53:47;;;;;;;1.23;1.10;;;25.80;92.10;;;;;;4938679;28;20523;-69
2022/06/11 09:56:21;;;;;;;1.90;1.30;;;25.90;91.70;;;;;;4944682;28;20956;-73
2022/06/11 09:58:57;;;;;;;1.60;1.50;;;25.90;90.60;;;;;;4949649;28;20468;-70
2022/06/11 10:01:29;;;;;;;1.10;1.10;;;25.80;90.70;;;;;;4956205;28;20508;-69
2022/06/11 10:03:59;;;;;;;1.63;1.60;;;25.70;90.70;;;;;;4954409;28;20805;-70
2022/06/11 10:06:32;;;;;;;1.33;1.33;;;25.60;91.20;;;;;;4956476;28;20564;-71
2022/06/11 10:09:00;;;;;;;1.47;1.37;;;25.60;91.00;;;;;;4954976;28;20574;-66
2022/06/11 10:11:35;;;;;;;2.03;1.20;;;25.70;91.80;;;;;;4948197;28;20906;-68
2022/06/11 10:16:51;;;;;;;1.57;1.53;;;25.70;91.60;;;;;;4940208;28;21005;-67
2022/06/11 10:19:25;;;;;;;1.50;1.40;;;25.80;92.00;;;;;;4955304;28;20965;-68
2022/06/11 10:22:00;;;;;;;1.43;1.33;;;25.70;91.30;;;;;;4947949;28;20533;-68
2022/06/11 10:24:31;;;;;;;1.07;1.07;;;25.60;91.00;;;;;;4970930;28;20857;-68
2022/06/11 10:27:03;;;;;;;1.60;1.60;;;25.60;90.90;;;;;;4950853;28;20480;-70
2022/06/11 10:29:36;;;;;;;1.20;1.20;;;25.60;90.30;;;;;;4958611;28;21164;-68
2022/06/11 10:32:09;;;;;;;1.43;1.33;;;25.50;90.40;;;;;;4960923;28;20980;-69
2022/06/11 10:34:39;;;;;;;1.43;1.43;;;25.50;90.80;;;;;;4968677;28;20543;-68
2022/06/11 10:37:12;;;;;;;1.60;1.17;;;25.40;88.40;;;;;;4958698;28;20464;-69
2022/06/11 10:39:45;;;;;;;1.60;1.60;;;25.40;88.90;;;;;;4955427;28;20526;-70
2022/06/11 10:42:15;;;;;;;1.20;1.20;;;25.30;89.20;;;;;;4954378;28;20520;-69
2022/06/11 10:44:47;;;;;;;2.77;1.60;;;25.50;90.50;;;;;;4960714;28;20591;-68
2022/06/11 10:47:19;;;;;;;4.77;1.40;;;25.60;90.10;;;;;;4964957;28;20476;-68
2022/06/11 10:49:49;;;;;;;1.10;1.10;;;25.80;90.30;;;;;;4964869;28;20475;-67
2022/06/11 10:52:28;;;;;;;1.30;1.20;;;25.80;89.60;;;;;;4962032;28;20602;-67
2022/06/11 10:54:55;;;;;;;1.00;1.00;;;25.80;90.00;;;;;;4961724;28;21027;-68
2022/06/11 10:57:25;;;;;;;2.00;1.50;;;25.90;88.30;;;;;;4956205;28;20459;-69
2022/06/11 10:59:59;;;;;;;1.00;1.00;;;25.90;87.20;;;;;;4951670;28;20555;-68
2022/06/11 11:02:29;;;;;;;1.37;1.37;;;25.80;88.00;;;;;;4958948;28;20992;-68
2022/06/11 11:05:00;;;;;;;2.20;1.40;;;25.80;88.30;;;;;;4944345;28;20495;-68
2022/06/11 11:07:42;;;;;;;1.23;1.23;;;25.70;88.50;;;;;;4960949;28;20459;-69
2022/06/11 11:10:21;;;;;;;1.40;1.30;;;25.90;88.00;;;;;;4960923;28;20465;-69
2022/06/11 11:12:50;;;;;;;1.10;1.07;;;26.00;87.60;;;;;;4933376;29;20521;-70
2022/06/11 11:15:19;;;;;;;1.50;1.50;;;26.10;87.90;;;;;;4952047;28;20492;-69
2022/06/11 11:17:48;;;;;;;2.23;1.60;;;26.00;86.10;;;;;;4950818;28;20500;-69
2022/06/11 11:20:34;;;;;;;1.30;1.30;;;26.00;85.70;;;;;;4966854;28;20468;-68
2022/06/11 11:23:14;;;;;;;2.07;1.30;;;25.90;86.00;;;;;;4936660;29;20469;-68
2022/06/11 11:25:44;;;;;;;1.80;1.07;;;25.90;84.70;;;;;;4963898;28;20494;-68
2022/06/11 11:28:21;;;;;;;1.50;1.40;;;25.50;84.00;;;;;;4942003;28;20465;-69
2022/06/11 11:30:58;;;;;;;6.23;1.30;;;25.40;85.10;;;;;;4948150;28;20492;-69
2022/06/11 11:33:27;;;;;;;1.40;1.30;;;25.40;85.20;;;;;;4958455;28;20472;-69
2022/06/11 11:36:10;;;;;;;2.00;1.30;;;25.50;85.50;;;;;;4960565;28;20490;-69
2022/06/11 11:38:40;;;;;;;1.20;1.20;;;25.70;84.10;;;;;;4957855;28;20471;-69
2022/06/11 11:41:07;;;;;;;2.87;1.70;;;25.70;83.80;;;;;;4942797;28;20481;-69
2022/06/11 11:43:37;;;;;;;1.20;1.20;;;25.70;83.70;;;;;;4955651;28;20468;-67
2022/06/11 11:46:07;;;;;;;1.30;1.27;;;25.80;81.90;;;;;;4964519;28;20554;-67
2022/06/11 11:48:38;;;;;;;1.57;1.47;;;25.70;81.30;;;;;;4948711;28;20480;-68
2022/06/11 11:51:08;;;;;;;2.47;1.83;;;25.60;81.60;;;;;;4941051;28;20884;-68
2022/06/11 11:53:41;;;;;;;1.53;1.43;;;25.80;82.40;;;;;;4946371;28;21058;-70
2022/06/11 11:56:25;;;;;;;1.73;1.73;;;25.80;82.10;;;;;;4949512;28;20472;-68
2022/06/11 11:58:56;;;;;;;1.53;1.43;;;25.80;83.60;;;;;;4944888;28;20885;-69
2022/06/11 12:01:25;;;;;;;1.80;1.70;;;25.70;82.30;;;;;;4936932;28;20501;-70
2022/06/11 12:04:02;;;;;;;1.77;1.67;;;25.70;81.70;;;;;;4946722;28;20836;-69
2022/06/11 12:06:33;;;;;;;1.63;1.53;;;25.80;84.20;;;;;;4949052;28;21341;-68
2022/06/11 12:09:03;;;;;;;5.20;1.80;;;26.00;82.60;;;;;;4944181;28;20471;-68
2022/06/11 12:11:37;;;;;;;1.60;1.53;;;26.00;81.30;;;;;;4960349;28;21002;-69
2022/06/11 12:14:13;;;;;;;2.70;2.50;;;26.00;81.20;;;;;;4964479;28;20476;-69
2022/06/11 12:16:44;;;;;;;1.60;1.50;;;26.10;82.10;;;;;;4963952;28;20507;-70
2022/06/11 12:19:22;;;;;;;1.60;1.50;;;26.20;79.60;;;;;;4971904;28;20496;-69
2022/06/11 12:21:53;;;;;;;3.90;1.97;;;26.20;80.60;;;;;;4971506;28;20548;-69
2022/06/11 12:24:27;;;;;;;3.23;2.33;;;26.00;81.40;;;;;;4971841;28;20465;-68
2022/06/11 12:27:01;;;;;;;5.87;2.47;;;26.10;80.50;;;;;;4965401;28;20496;-68
2022/06/11 12:29:33;;;;;;;3.73;2.00;;;26.00;80.20;;;;;;4959320;28;20476;-69
2022/06/11 12:32:02;;;;;;;3.93;2.17;;;26.00;81.50;;;;;;4965935;28;20484;-69
2022/06/11 12:34:31;;;;;;;2.03;1.93;;;26.00;80.50;;;;;;4971857;28;20464;-70
2022/06/11 12:37:01;;;;;;;2.30;2.20;;;25.70;80.00;;;;;;4972234;28;20543;-69
2022/06/11 12:39:48;;;;;;;2.50;2.33;;;25.50;81.20;;;;;;4971525;28;20479;-69
2022/06/11 12:42:23;;;;;;;3.10;1.93;;;25.60;82.20;;;;;;4956656;28;20484;-69
2022/06/11 12:45:01;;;;;;;2.07;1.97;;;25.70;82.00;;;;;;4937675;29;20976;-68
2022/06/11 12:47:45;;;;;;;2.57;2.33;;;25.80;83.50;;;;;;4952968;28;20953;-69
2022/06/11 12:50:32;;;;;;;2.77;2.60;;;25.80;83.00;;;;;;4951916;28;20491;-69
2022/06/11 12:53:08;;;;;;;2.77;2.17;;;25.90;82.90;;;;;;4952358;28;20483;-69
2022/06/11 12:55:58;;;;;;;2.60;2.50;;;26.00;82.60;;;;;;4952291;28;20556;-70
2022/06/11 12:58:38;;;;;;;1.83;1.73;;;26.10;82.40;;;;;;4949861;28;20543;-68
2022/06/11 13:01:10;;;;;;;3.10;2.30;;;26.10;82.20;;;;;;4963397;28;20576;-78
2022/06/11 13:03:57;;;;;;;2.43;2.33;;;26.20;82.70;;;;;;4956970;28;20995;-68
2022/06/11 13:06:39;;;;;;;3.83;2.30;;;26.40;81.80;;;;;;4956171;28;20492;-69
2022/06/11 13:09:20;;;;;;;3.50;2.27;;;26.40;82.30;;;;;;4949819;28;20465;-68
2022/06/11 13:12:00;;;;;;;4.73;2.37;;;26.30;82.40;;;;;;4948477;28;20493;-67
2022/06/11 13:14:54;;;;;;;2.67;2.30;;;26.20;83.00;;;;;;4971491;28;20479;-68
2022/06/11 13:17:30;;;;;;;2.33;2.23;;;25.90;82.90;;;;;;4953798;28;20971;-69
2022/06/11 13:20:07;;;;;;;4.77;2.37;;;25.80;86.70;;;;;;4962354;28;20633;-69
2022/06/11 13:22:41;;;;;;;2.60;2.20;;;25.70;83.30;;;;;;4961983;28;20973;-70
2022/06/11 13:25:23;;;;;;;3.40;2.00;;;25.70;82.50;;;;;;4959401;28;20548;-70
2022/06/11 13:28:00;;;;;;;2.27;2.07;;;25.80;83.10;;;;;;4961368;28;20519;-70
2022/06/11 13:30:38;;;;;;;2.30;2.10;;;25.90;83.00;;;;;;4945960;28;20840;-68
2022/06/11 13:33:22;;;;;;;2.30;2.00;;;26.00;84.80;;;;;;4960797;28;20496;-68
2022/06/11 13:35:54;;;;;;;4.20;2.10;;;25.90;83.90;;;;;;4953247;28;20515;-71
2022/06/11 13:38:32;;;;;;;2.70;2.50;;;25.90;83.30;;;;;;4955511;28;20454;-69
2022/06/11 13:41:06;;;;;;;2.50;1.90;;;25.90;83.30;;;;;;4950865;28;20784;-69
2022/06/11 13:43:52;;;;;;;2.40;2.17;;;26.00;82.90;;;;;;4953245;28;20457;-69
2022/06/11 13:46:29;;;;;;;2.67;2.47;;;26.00;82.90;;;;;;4945814;28;20488;-68
2022/06/11 13:49:08;;;;;;;3.00;1.80;;;25.90;83.30;;;;;;4950032;28;20568;-69
2022/06/11 13:51:39;;;;;;;2.27;1.87;;;25.60;84.30;;;;;;4944023;28;20833;-69
2022/06/11 13:57:37;;;;;;;2.23;2.13;;;25.90;83.90;;;;;;4958904;28;20900;-69
2022/06/11 14:00:15;;;;;;;2.53;2.23;;;25.90;82.30;;;;;;4942372;29;20473;-69
2022/06/11 14:03:27;;;;;;;3.20;1.67;;;26.00;82.50;;;;;;4954509;29;20526;-69
2022/06/11 14:05:56;;;;;;;1.60;1.50;;;26.20;82.50;;;;;;4941118;28;20604;-69
2022/06/11 14:08:37;;;;;;;2.37;2.17;;;26.30;82.50;;;;;;4944374;28;20488;-69
2022/06/11 14:11:04;;;;;;;2.70;2.13;;;26.50;82.60;;;;;;4945448;28;20481;-69
2022/06/11 14:13:58;;;;;;;1.80;1.70;;;26.40;82.20;;;;;;4949047;28;20492;-69
2022/06/11 14:16:42;;;;;;;3.00;1.77;;;26.50;82.70;;;;;;4905332;29;20522;-69
2022/06/11 14:19:38;;;;;;;5.03;1.80;;;26.70;81.90;;;;;;4944194;28;20472;-69
2022/06/11 14:22:05;;;;;;;3.40;1.90;;;26.80;83.30;;;;;;4959951;28;20519;-68
2022/06/11 14:24:56;;;;;;;3.10;2.37;;;26.90;82.70;;;;;;4954252;28;20516;-68
2022/06/11 14:27:38;;;;;;;2.50;1.80;;;27.20;82.50;;;;;;4942139;28;20497;-68
2022/06/11 14:30:21;;;;;;;1.83;1.70;;;27.30;81.80;;;;;;4934440;29;20469;-69
2022/06/11 14:33:04;;;;;;;2.00;1.73;;;27.20;80.80;;;;;;4951060;28;20459;-69
2022/06/11 14:35:35;;;;;;;1.30;1.30;;;27.20;81.30;;;;;;4958018;28;20533;-68
2022/06/11 14:38:29;;;;;;;2.50;2.00;;;27.40;81.50;;;;;;4953562;28;20560;-68
2022/06/11 14:41:23;;;;;;;2.20;2.00;;;27.10;79.70;;;;;;4952152;28;20487;-69
2022/06/11 14:44:15;;;;;;;2.67;1.50;;;26.60;80.40;;;;;;4961726;28;20472;-68
2022/06/11 14:46:49;;;;;;;2.87;1.90;;;26.50;81.80;;;;;;4948598;28;20485;-68
2022/06/11 14:49:48;;;;;;;4.40;4.10;;;26.50;82.00;;;;;;4947651;29;20532;-68
2022/06/11 14:52:48;;;;;;;5.83;3.93;;;26.40;82.20;;;;;;4949642;28;20502;-69
2022/06/11 14:55:32;;;;;;;2.33;2.23;;;26.50;83.30;;;;;;4956875;28;20485;-68
2022/06/11 14:58:13;;;;;;;5.70;3.57;;;26.80;83.10;;;;;;4957813;28;20469;-68
2022/06/11 15:00:51;;;;;;;4.30;3.10;;;27.00;82.70;;;;;;4956055;28;20491;-69
2022/06/11 15:03:47;;;;;;;4.37;2.00;;;26.90;81.50;;;;;;4942707;28;20480;-68
2022/06/11 15:06:43;;;;;;;3.87;2.03;;;26.80;81.80;;;;;;4965229;28;20487;-68
2022/06/11 15:09:43;;;;;;;2.37;1.77;;;27.00;82.40;;;;;;4942466;28;20479;-69
2022/06/11 15:12:38;;;;;;;5.80;2.60;;;27.20;82.50;;;;;;4957716;28;20484;-69
2022/06/11 15:15:26;;;;;;;3.60;1.77;;;27.20;81.70;;;;;;4956552;28;20468;-70
2022/06/11 15:17:58;;;;;;;1.90;1.80;;;26.90;81.60;;;;;;4944741;28;20480;-70
2022/06/11 15:20:35;;;;;;;4.03;1.90;;;26.90;82.40;;;;;;4967635;28;20542;-68
2022/06/11 15:23:11;;;;;;;2.90;1.60;;;26.70;81.60;;;;;;4958003;28;20544;-69
2022/06/11 15:25:38;;;;;;;2.93;1.40;;;26.50;81.20;;;;;;4959216;28;20457;-67
2022/06/11 15:28:08;;;;;;;2.37;2.17;;;26.40;80.70;;;;;;4944994;29;20473;-68
2022/06/11 15:30:37;;;;;;;2.60;2.30;;;26.50;81.00;;;;;;4961509;28;20472;-67
2022/06/11 15:33:17;;;;;;;3.53;1.93;;;26.60;81.50;;;;;;4957471;28;20468;-68
2022/06/11 15:35:54;;;;;;;2.33;1.83;;;26.80;80.70;;;;;;4940522;28;20958;-68
2022/06/11 15:38:26;;;;;;;3.10;2.00;;;27.00;80.00;;;;;;4947701;28;20469;-69
2022/06/11 15:40:56;;;;;;;1.90;1.80;;;27.10;80.90;;;;;;4951864;28;20488;-68
2022/06/11 15:43:26;;;;;;;1.77;1.50;;;27.20;79.80;;;;;;4946423;28;20485;-68
2022/06/11 15:45:55;;;;;;;2.33;2.10;;;27.20;79.90;;;;;;4953212;28;20473;-67
2022/06/11 15:48:32;;;;;;;2.00;1.80;;;27.10;79.80;;;;;;4944596;28;20477;-68
2022/06/11 15:51:01;;;;;;;2.00;1.80;;;27.10;79.10;;;;;;4937303;28;20480;-67
2022/06/11 15:55:11;;;;;;;2.77;1.70;;;27.00;79.80;;;;;;4946612;28;20480;-68
2022/06/11 15:56:27;;;;;;;4.53;1.87;;;26.70;78.60;;;;;;4949418;28;20493;-68
2022/06/11 15:59:07;;;;;;;1.90;1.80;;;26.50;79.40;;;;;;4958940;28;20467;-69
2022/06/11 16:01:34;;;;;;;2.40;1.77;;;26.70;80.60;;;;;;4953700;28;20595;-69
2022/06/11 16:04:01;;;;;;;2.37;1.80;;;26.80;80.20;;;;;;4946188;28;20468;-68
2022/06/11 16:06:29;;;;;;;2.40;1.80;;;27.00;80.10;;;;;;4952479;28;20500;-68
2022/06/11 16:09:01;;;;;;;5.00;1.97;;;27.00;80.90;;;;;;4951038;28;20846;-69
2022/06/11 16:11:31;;;;;;;2.00;1.80;;;27.10;78.90;;;;;;4945995;28;20976;-69
2022/06/11 16:14:01;;;;;;;3.17;1.87;;;26.90;80.20;;;;;;4943920;28;20500;-68
2022/06/11 16:16:31;;;;;;;2.77;2.17;;;26.80;79.50;;;;;;4953694;28;20498;-69
2022/06/11 16:19:13;;;;;;;4.57;1.83;;;26.60;79.40;;;;;;4941887;29;20524;-68
2022/06/11 16:21:41;;;;;;;1.90;1.80;;;26.60;80.40;;;;;;4941185;28;20908;-67
2022/06/11 16:24:15;;;;;;;4.67;1.80;;;26.40;80.00;;;;;;4951229;28;20480;-68
2022/06/11 16:26:43;;;;;;;3.77;2.13;;;26.50;80.60;;;;;;4949221;28;20503;-68
2022/06/11 16:29:13;;;;;;;2.10;1.57;;;26.60;79.90;;;;;;4939991;28;20561;-68
2022/06/11 16:31:40;;;;;;;4.40;2.70;;;26.60;80.00;;;;;;4953400;28;20491;-68
2022/06/11 16:34:11;;;;;;;1.77;1.67;;;26.50;80.00;;;;;;4943376;28;20503;-69
2022/06/11 16:36:38;;;;;;;3.37;2.40;;;26.50;79.30;;;;;;4958018;28;20472;-68
2022/06/11 16:39:08;;;;;;;2.63;1.80;;;26.30;79.90;;;;;;4943508;28;20574;-69
2022/06/11 16:44:25;;;;;;;2.03;1.80;;;26.20;81.30;;;;;;4955444;28;21012;-70
2022/06/11 16:46:55;;;;;;;2.93;1.80;;;26.40;81.80;;;;;;4945891;28;20494;-70
2022/06/11 16:57:48;;;;;;;2.30;2.10;;;26.30;80.30;;;;;;4944805;28;20478;-68
2022/06/11 17:00:32;;;;;;;2.93;1.90;;;26.20;79.40;;;;;;4943821;29;20475;-68
2022/06/11 17:03:09;;;;;;;4.40;3.07;;;26.20;80.80;;;;;;4952866;28;20504;-68
2022/06/11 17:05:45;;;;;;;6.97;2.73;;;26.00;80.30;;;;;;4951167;28;20485;-70
2022/06/11 17:08:13;;;;;;;1.93;1.83;;;26.00;81.10;;;;;;4948688;28;20507;-69
2022/06/11 17:10:43;;;;;;;5.10;2.63;;;26.00;81.50;;;;;;4961097;28;21009;-69
2022/06/11 17:13:27;;;;;;;2.77;1.63;;;26.00;81.20;;;;;;4961341;28;20963;-68
2022/06/11 17:15:57;;;;;;;5.10;1.93;;;26.10;81.80;;;;;;4936382;28;20480;-69
2022/06/11 17:18:28;;;;;;;2.07;1.97;;;26.10;81.80;;;;;;4947077;28;20561;-69
2022/06/11 17:20:57;;;;;;;4.23;1.70;;;26.00;81.10;;;;;;4953485;28;20492;-68
2022/06/11 17:23:29;;;;;;;1.73;1.50;;;26.00;80.70;;;;;;4951565;28;20588;-69
2022/06/11 17:25:59;;;;;;;1.80;1.70;;;25.90;80.40;;;;;;4958921;28;20472;-69
2022/06/11 17:28:29;;;;;;;2.50;1.90;;;25.70;80.20;;;;;;4959014;28;20542;-70
2022/06/11 17:30:57;;;;;;;1.80;1.70;;;25.60;80.00;;;;;;4956726;28;20545;-71
2022/06/11 17:33:24;;;;;;;2.10;2.00;;;25.60;80.10;;;;;;4956864;28;20465;-70
2022/06/11 17:35:51;;;;;;;4.10;2.67;;;25.50;80.60;;;;;;4961764;28;20523;-69
2022/06/11 17:38:36;;;;;;;1.40;1.40;;;25.40;80.60;;;;;;4947337;28;20464;-67
2022/06/11 17:41:12;;;;;;;4.23;2.13;;;25.40;81.90;;;;;;4954328;28;20503;-69
2022/06/11 17:43:40;;;;;;;5.20;2.43;;;25.50;82.00;;;;;;4938067;28;20992;-69